N0308 CYBR-CYDN
Flight info
| Callsign | N0308 |
|---|---|
| Flight time | 0h 27m |
| Altitude | 20000 |
| Route | IKLAM1 VISUR |
| Aircraft | C700/M-SBDGHM1RWXY/LB2 |
Departure
| Time | 2026-05-05 11:59 |
|---|---|
| Airport | Brandon Municipal Airport (CYBR) |
Arrival
| Time | 2026-05-05 12:26 |
|---|---|
| Airport | Dauphin Barker Airport (CYDN) |
| Time | Latitude | Longitude | Altitude | Speed | Heading |
|---|---|---|---|---|---|
| 2026-05-05 11:42 | 49.90421 | -99.94177 | 1325 ft | 0 kts | 25° |
| 2026-05-05 11:56 | 49.90431 | -99.94177 | 1325 ft | 5 kts | 349° |
| 2026-05-05 11:56 | 49.90476 | -99.94232 | 1326 ft | 12 kts | 326° |
| 2026-05-05 11:56 | 49.90556 | -99.94198 | 1325 ft | 17 kts | 49° |
| 2026-05-05 11:57 | 49.90652 | -99.94054 | 1325 ft | 16 kts | 40° |
| 2026-05-05 11:57 | 49.90658 | -99.94046 | 1325 ft | 0 kts | 40° |
| 2026-05-05 11:58 | 49.90663 | -99.94040 | 1325 ft | 0 kts | 39° |
| 2026-05-05 11:58 | 49.90664 | -99.94039 | 1325 ft | 2 kts | 39° |
| 2026-05-05 11:58 | 49.90699 | -99.93995 | 1325 ft | 11 kts | 39° |
| 2026-05-05 11:58 | 49.90755 | -99.94039 | 1326 ft | 17 kts | 264° |
| 2026-05-05 11:59 | 49.90754 | -99.94353 | 1326 ft | 62 kts | 270° |
| 2026-05-05 11:59 | 49.90758 | -99.95528 | 1412 ft | 146 kts | 269° |
| 2026-05-05 11:59 | 49.90750 | -99.97036 | 2766 ft | 135 kts | 289° |
| 2026-05-05 11:59 | 49.91291 | -99.98286 | 3873 ft | 154 kts | 307° |
| 2026-05-05 12:00 | 49.91470 | -100.00076 | 5152 ft | 189 kts | 269° |
| 2026-05-05 12:00 | 49.91240 | -100.02226 | 6578 ft | 216 kts | 266° |
| 2026-05-05 12:00 | 49.91001 | -100.04642 | 8181 ft | 232 kts | 266° |
| 2026-05-05 12:00 | 49.90765 | -100.07201 | 9983 ft | 252 kts | 266° |
| 2026-05-05 12:01 | 49.90944 | -100.09987 | 11294 ft | 273 kts | 295° |
| 2026-05-05 12:01 | 49.92201 | -100.12267 | 12897 ft | 287 kts | 328° |
| 2026-05-05 12:01 | 49.94128 | -100.13097 | 14847 ft | 298 kts | 356° |
| 2026-05-05 12:01 | 49.96228 | -100.12737 | 16524 ft | 307 kts | 1° |
| 2026-05-05 12:02 | 49.98377 | -100.12699 | 18236 ft | 312 kts | 356° |
| 2026-05-05 12:02 | 50.00581 | -100.12752 | 19634 ft | 322 kts | 357° |
| 2026-05-05 12:02 | 50.02946 | -100.12636 | 20038 ft | 362 kts | 0° |
| 2026-05-05 12:02 | 50.05620 | -100.12366 | 20053 ft | 404 kts | 1° |
| 2026-05-05 12:03 | 50.08372 | -100.12129 | 20045 ft | 382 kts | 360° |
| 2026-05-05 12:03 | 50.10968 | -100.11990 | 20013 ft | 375 kts | 359° |
| 2026-05-05 12:03 | 50.13649 | -100.11856 | 20018 ft | 392 kts | 359° |
| 2026-05-05 12:03 | 50.16389 | -100.11666 | 20018 ft | 395 kts | 0° |
| 2026-05-05 12:04 | 50.19141 | -100.11458 | 20019 ft | 396 kts | 0° |
| 2026-05-05 12:04 | 50.21893 | -100.11278 | 20017 ft | 397 kts | 360° |
| 2026-05-05 12:04 | 50.24653 | -100.11097 | 20017 ft | 396 kts | 1° |
| 2026-05-05 12:04 | 50.27352 | -100.10466 | 20015 ft | 398 kts | 9° |
| 2026-05-05 12:05 | 50.30049 | -100.09453 | 20015 ft | 399 kts | 11° |
| 2026-05-05 12:05 | 50.32748 | -100.08448 | 20015 ft | 398 kts | 9° |
| 2026-05-05 12:05 | 50.35468 | -100.07640 | 20018 ft | 397 kts | 7° |
| 2026-05-05 12:05 | 50.38190 | -100.06855 | 20019 ft | 398 kts | 8° |
| 2026-05-05 12:06 | 50.40902 | -100.05973 | 20017 ft | 398 kts | 9° |
| 2026-05-05 12:06 | 50.43606 | -100.05064 | 20017 ft | 398 kts | 9° |
| 2026-05-05 12:06 | 50.46327 | -100.04197 | 20022 ft | 398 kts | 8° |
| 2026-05-05 12:06 | 50.49047 | -100.03347 | 20022 ft | 398 kts | 9° |
| 2026-05-05 12:07 | 50.51753 | -100.02480 | 20022 ft | 398 kts | 9° |
| 2026-05-05 12:07 | 50.54470 | -100.01599 | 20025 ft | 398 kts | 9° |
| 2026-05-05 12:07 | 50.57182 | -100.00725 | 20025 ft | 398 kts | 9° |
| 2026-05-05 12:07 | 50.59859 | -99.99868 | 20025 ft | 398 kts | 9° |
| 2026-05-05 12:08 | 50.62574 | -99.98994 | 20025 ft | 398 kts | 9° |
| 2026-05-05 12:08 | 50.65285 | -99.98118 | 20029 ft | 398 kts | 9° |
| 2026-05-05 12:08 | 50.67999 | -99.97242 | 20028 ft | 398 kts | 9° |
| 2026-05-05 12:08 | 50.70748 | -99.96353 | 20028 ft | 398 kts | 9° |
| 2026-05-05 12:09 | 50.73460 | -99.95475 | 20026 ft | 398 kts | 9° |
| 2026-05-05 12:09 | 50.76133 | -99.94595 | 20023 ft | 398 kts | 9° |
| 2026-05-05 12:09 | 50.78879 | -99.93697 | 20018 ft | 398 kts | 9° |
| 2026-05-05 12:09 | 50.81555 | -99.92859 | 20014 ft | 398 kts | 8° |
| 2026-05-05 12:10 | 50.84269 | -99.91990 | 20008 ft | 398 kts | 9° |
| 2026-05-05 12:10 | 50.86981 | -99.91130 | 20000 ft | 397 kts | 6° |
| 2026-05-05 12:10 | 50.89698 | -99.90848 | 19981 ft | 377 kts | 358° |
| 2026-05-05 12:10 | 50.92248 | -99.91007 | 19006 ft | 362 kts | 355° |
| 2026-05-05 12:11 | 50.94683 | -99.91226 | 18622 ft | 338 kts | 355° |
| 2026-05-05 12:11 | 50.96932 | -99.91444 | 18495 ft | 310 kts | 355° |
| 2026-05-05 12:11 | 50.99040 | -99.91641 | 17882 ft | 301 kts | 355° |
| 2026-05-05 12:11 | 51.01131 | -99.91834 | 17092 ft | 299 kts | 355° |
| 2026-05-05 12:12 | 51.03191 | -99.92024 | 16375 ft | 294 kts | 355° |
| 2026-05-05 12:12 | 51.05223 | -99.92215 | 15667 ft | 291 kts | 355° |
| 2026-05-05 12:12 | 51.07229 | -99.92401 | 15003 ft | 287 kts | 355° |
| 2026-05-05 12:12 | 51.09213 | -99.92593 | 14340 ft | 284 kts | 355° |
| 2026-05-05 12:13 | 51.11150 | -99.92786 | 13691 ft | 281 kts | 355° |
| 2026-05-05 12:13 | 51.13085 | -99.92980 | 12982 ft | 277 kts | 355° |
| 2026-05-05 12:13 | 51.15004 | -99.93173 | 12291 ft | 274 kts | 355° |
| 2026-05-05 12:13 | 51.16895 | -99.93364 | 11653 ft | 270 kts | 355° |
| 2026-05-05 12:14 | 51.18763 | -99.93553 | 10996 ft | 267 kts | 355° |
| 2026-05-05 12:14 | 51.20609 | -99.93740 | 10362 ft | 265 kts | 355° |
| 2026-05-05 12:14 | 51.22437 | -99.93915 | 9723 ft | 261 kts | 357° |
| 2026-05-05 12:14 | 51.24198 | -99.93218 | 9022 ft | 266 kts | 26° |
| 2026-05-05 12:15 | 51.25514 | -99.91158 | 8405 ft | 271 kts | 54° |
| 2026-05-05 12:15 | 51.26044 | -99.88261 | 7791 ft | 278 kts | 82° |
| 2026-05-05 12:15 | 51.25923 | -99.85181 | 7197 ft | 278 kts | 92° |
| 2026-05-05 12:15 | 51.25651 | -99.82137 | 6619 ft | 276 kts | 94° |
| 2026-05-05 12:16 | 51.25352 | -99.79121 | 6005 ft | 273 kts | 95° |
| 2026-05-05 12:16 | 51.24971 | -99.76172 | 5377 ft | 273 kts | 107° |
| 2026-05-05 12:16 | 51.23799 | -99.73791 | 4796 ft | 278 kts | 142° |
| 2026-05-05 12:16 | 51.22021 | -99.72769 | 4178 ft | 278 kts | 176° |
| 2026-05-05 12:17 | 51.20206 | -99.73403 | 4021 ft | 259 kts | 206° |
| 2026-05-05 12:17 | 51.18475 | -99.74206 | 4021 ft | 267 kts | 188° |
| 2026-05-05 12:17 | 51.16579 | -99.74312 | 4031 ft | 277 kts | 182° |
| 2026-05-05 12:17 | 51.14639 | -99.74447 | 4036 ft | 280 kts | 187° |
| 2026-05-05 12:18 | 51.12708 | -99.74821 | 4027 ft | 278 kts | 190° |
| 2026-05-05 12:18 | 51.10803 | -99.75247 | 4029 ft | 276 kts | 189° |
| 2026-05-05 12:18 | 51.08895 | -99.75604 | 4035 ft | 276 kts | 188° |
| 2026-05-05 12:18 | 51.06991 | -99.75933 | 4022 ft | 273 kts | 188° |
| 2026-05-05 12:19 | 51.05155 | -99.76263 | 4015 ft | 257 kts | 189° |
| 2026-05-05 12:19 | 51.03442 | -99.76580 | 4010 ft | 240 kts | 189° |
| 2026-05-05 12:19 | 51.01824 | -99.76880 | 4012 ft | 229 kts | 189° |
| 2026-05-05 12:19 | 51.00240 | -99.77173 | 4014 ft | 230 kts | 189° |
| 2026-05-05 12:20 | 50.98635 | -99.77494 | 4015 ft | 233 kts | 193° |
| 2026-05-05 12:20 | 50.97143 | -99.78424 | 4017 ft | 230 kts | 215° |
| 2026-05-05 12:20 | 50.95943 | -99.80003 | 4014 ft | 224 kts | 234° |
| 2026-05-05 12:20 | 50.95098 | -99.82033 | 4016 ft | 219 kts | 246° |
| 2026-05-05 12:21 | 50.94505 | -99.84221 | 4018 ft | 213 kts | 262° |
| 2026-05-05 12:21 | 50.94348 | -99.86520 | 4018 ft | 207 kts | 277° |
| 2026-05-05 12:21 | 50.94590 | -99.88739 | 4017 ft | 203 kts | 292° |
| 2026-05-05 12:21 | 50.95190 | -99.90733 | 4008 ft | 197 kts | 307° |
| 2026-05-05 12:22 | 50.95741 | -99.91833 | 4010 ft | 188 kts | 316° |
| 2026-05-05 12:22 | 50.96730 | -99.93135 | 3861 ft | 186 kts | 329° |
| 2026-05-05 12:22 | 50.97844 | -99.94116 | 3617 ft | 179 kts | 332° |
| 2026-05-05 12:22 | 50.98910 | -99.95082 | 3381 ft | 173 kts | 331° |
| 2026-05-05 12:23 | 50.99932 | -99.96012 | 3154 ft | 167 kts | 330° |
| 2026-05-05 12:23 | 51.00928 | -99.96922 | 2923 ft | 163 kts | 330° |
| 2026-05-05 12:23 | 51.01863 | -99.97773 | 2714 ft | 149 kts | 330° |
| 2026-05-05 12:23 | 51.02735 | -99.98563 | 2535 ft | 140 kts | 330° |
| 2026-05-05 12:24 | 51.03576 | -99.99324 | 2381 ft | 141 kts | 330° |
| 2026-05-05 12:24 | 51.04396 | -100.00069 | 2213 ft | 119 kts | 330° |
| 2026-05-05 12:24 | 51.05077 | -100.00691 | 1973 ft | 108 kts | 330° |
| 2026-05-05 12:24 | 51.05716 | -100.01275 | 1834 ft | 104 kts | 330° |
| 2026-05-05 12:25 | 51.06342 | -100.01843 | 1705 ft | 105 kts | 331° |
| 2026-05-05 12:25 | 51.06988 | -100.02432 | 1594 ft | 108 kts | 331° |
| 2026-05-05 12:25 | 51.07652 | -100.03035 | 1458 ft | 111 kts | 332° |
| 2026-05-05 12:25 | 51.08314 | -100.03638 | 1314 ft | 108 kts | 332° |
| 2026-05-05 12:26 | 51.08969 | -100.04229 | 1172 ft | 107 kts | 334° |
| 2026-05-05 12:26 | 51.09619 | -100.04816 | 1024 ft | 107 kts | 332° |
| 2026-05-05 12:26 | 51.10130 | -100.05284 | 997 ft | 43 kts | 332° |
| 2026-05-05 12:26 | 51.10274 | -100.05472 | 994 ft | 15 kts | 265° |
| 2026-05-05 12:27 | 51.10260 | -100.05515 | 998 ft | 4 kts | 236° |
| 2026-05-05 12:27 | 51.10229 | -100.05586 | 997 ft | 10 kts | 236° |
| 2026-05-05 12:27 | 51.10202 | -100.05651 | 997 ft | 0 kts | 238° |
| 2026-05-05 12:27 | 51.10202 | -100.05653 | 997 ft | 3 kts | 238° |
| 2026-05-05 12:28 | 51.10185 | -100.05738 | 997 ft | 11 kts | 272° |
| 2026-05-05 12:28 | 51.10204 | -100.05776 | 996 ft | 0 kts | 327° |